Time;durP1;ratioP1;P1;durP2;ratioP2;P2;SDS_P1;SDS_P2;PMS_P1;PMS_P2;Temp;Humidity;BMP_temperature;BMP_pressure;BME280_temperature;BME280_humidity;BME280_pressure;Samples;Min_cycle;Max_cycle;Signal;HPM_P1;HPM_P2
2021/11/16 00:02:59;;;;;;;18.27;14.10;;;;;;;;;;4934809;29;20396;-78
2021/11/16 00:06:04;;;;;;;21.02;14.90;;;;;;;;;;4934446;29;20225;-78
2021/11/16 00:09:08;;;;;;;24.17;16.52;;;;;;;;;;4934543;29;20047;-78
2021/11/16 00:12:12;;;;;;;21.75;14.77;;;;;;;;;;4934676;29;20046;-78
2021/11/16 00:15:17;;;;;;;20.25;13.85;;;;;;;;;;4934566;29;20113;-78
2021/11/16 00:18:26;;;;;;;23.40;14.93;;;;;;;;;;4934719;29;20047;-77
2021/11/16 00:21:31;;;;;;;19.83;13.75;;;;;;;;;;4934131;29;20066;-78
2021/11/16 00:24:39;;;;;;;19.38;12.25;;;;;;;;;;4934322;29;20400;-78
2021/11/16 00:27:43;;;;;;;17.65;12.43;;;;;;;;;;4934330;29;20059;-78
2021/11/16 00:30:48;;;;;;;17.00;11.02;;;;;;;;;;4933456;29;20070;-78
2021/11/16 00:33:54;;;;;;;15.82;11.82;;;;;;;;;;4933392;29;20047;-77
2021/11/16 00:36:58;;;;;;;15.07;10.73;;;;;;;;;;4934439;29;20050;-78
2021/11/16 00:40:08;;;;;;;12.73;9.60;;;;;;;;;;4934359;29;20055;-78
2021/11/16 00:43:13;;;;;;;13.35;10.10;;;;;;;;;;4934185;29;20047;-78
2021/11/16 00:46:17;;;;;;;13.05;9.77;;;;;;;;;;4934173;29;20494;-78
2021/11/16 00:49:21;;;;;;;13.32;10.13;;;;;;;;;;4933826;29;20055;-78
2021/11/16 00:52:26;;;;;;;15.52;9.68;;;;;;;;;;4934177;29;20059;-78
2021/11/16 00:55:30;;;;;;;13.40;9.45;;;;;;;;;;4933952;29;20047;-78
2021/11/16 00:58:35;;;;;;;15.10;9.00;;;;;;;;;;4933906;29;20051;-78
2021/11/16 01:01:39;;;;;;;13.55;9.00;;;;;;;;;;4933920;29;20059;-78
2021/11/16 01:04:51;;;;;;;11.52;8.75;;;;;;;;;;4934009;29;20056;-78
2021/11/16 01:07:55;;;;;;;10.18;7.65;;;;;;;;;;4934124;29;20044;-78
2021/11/16 01:11:02;;;;;;;9.40;7.10;;;;;;;;;;4933040;29;20047;-78
2021/11/16 01:14:06;;;;;;;9.52;6.18;;;;;;;;;;4933589;29;20052;-78
2021/11/16 01:17:11;;;;;;;8.13;5.85;;;;;;;;;;4932684;29;20040;-78
2021/11/16 01:20:17;;;;;;;8.30;6.30;;;;;;;;;;4933790;29;20036;-78
2021/11/16 01:23:22;;;;;;;9.40;6.45;;;;;;;;;;4933837;29;20043;-78
2021/11/16 01:26:26;;;;;;;8.13;6.38;;;;;;;;;;4933816;29;20044;-78
2021/11/16 01:29:31;;;;;;;9.48;6.50;;;;;;;;;;4933408;29;20287;-78
2021/11/16 01:32:41;;;;;;;12.70;7.13;;;;;;;;;;4933884;29;20036;-78
2021/11/16 01:35:46;;;;;;;10.15;7.00;;;;;;;;;;4933758;29;20044;-78
2021/11/16 01:38:52;;;;;;;9.80;7.32;;;;;;;;;;4933485;29;20048;-78
2021/11/16 01:41:56;;;;;;;8.65;6.85;;;;;;;;;;4933263;29;20051;-78
2021/11/16 01:45:01;;;;;;;13.13;7.13;;;;;;;;;;4936982;29;20043;-78
2021/11/16 01:48:07;;;;;;;8.52;6.25;;;;;;;;;;4937295;29;20040;-78
2021/11/16 01:51:13;;;;;;;11.15;6.32;;;;;;;;;;4937318;29;20040;-78
2021/11/16 01:54:18;;;;;;;7.60;5.78;;;;;;;;;;4937263;29;20047;-78
2021/11/16 01:57:22;;;;;;;5.80;4.85;;;;;;;;;;4937264;29;20365;-78
2021/11/16 02:00:29;;;;;;;5.70;4.97;;;;;;;;;;4936989;29;20476;-78
2021/11/16 02:03:33;;;;;;;5.78;4.95;;;;;;;;;;4937177;29;20043;-78
2021/11/16 02:06:39;;;;;;;6.38;4.70;;;;;;;;;;4937223;29;20036;-78
2021/11/16 02:09:43;;;;;;;5.60;4.53;;;;;;;;;;4936285;29;20484;-78
2021/11/16 02:12:48;;;;;;;7.38;4.53;;;;;;;;;;4936946;29;20043;-77
2021/11/16 02:15:52;;;;;;;6.78;5.05;;;;;;;;;;4936514;29;20032;-77
2021/11/16 02:18:56;;;;;;;5.55;4.15;;;;;;;;;;4935971;29;20495;-77
2021/11/16 02:22:01;;;;;;;7.32;4.40;;;;;;;;;;4936224;29;20047;-77
2021/11/16 02:25:06;;;;;;;4.60;3.25;;;;;;;;;;4936455;29;20043;-77
2021/11/16 02:28:10;;;;;;;6.22;3.20;;;;;;;;;;4936260;29;20052;-78
2021/11/16 02:31:15;;;;;;;8.27;3.55;;;;;;;;;;4936192;29;20032;-78
2021/11/16 02:34:20;;;;;;;5.65;3.67;;;;;;;;;;4935322;29;20044;-77
2021/11/16 02:37:24;;;;;;;4.22;3.83;;;;;;;;;;4935513;29;20484;-77
2021/11/16 02:40:30;;;;;;;7.30;3.88;;;;;;;;;;4936248;29;20048;-77
2021/11/16 02:43:36;;;;;;;5.30;3.30;;;;;;;;;;4936489;29;20044;-77
2021/11/16 02:46:41;;;;;;;3.83;2.80;;;;;;;;;;4936351;29;20039;-77
2021/11/16 02:49:46;;;;;;;4.25;2.95;;;;;;;;;;4936308;29;20039;-77
2021/11/16 02:52:50;;;;;;;4.38;2.90;;;;;;;;;;4936287;29;20043;-78
2021/11/16 02:55:54;;;;;;;4.68;2.90;;;;;;;;;;4935425;29;20035;-77
2021/11/16 02:58:59;;;;;;;4.90;2.88;;;;;;;;;;4936103;29;20048;-77
2021/11/16 03:02:03;;;;;;;5.85;2.88;;;;;;;;;;4935809;29;20055;-77
2021/11/16 03:05:08;;;;;;;5.85;2.85;;;;;;;;;;4935258;29;20040;-77
2021/11/16 03:08:17;;;;;;;5.57;2.95;;;;;;;;;;4935749;29;20043;-77
2021/11/16 03:11:21;;;;;;;4.50;2.50;;;;;;;;;;4935543;29;20036;-78
2021/11/16 03:14:26;;;;;;;4.95;2.75;;;;;;;;;;4935718;29;20040;-77
2021/11/16 03:17:30;;;;;;;3.03;2.63;;;;;;;;;;4935789;29;20035;-78
2021/11/16 03:20:35;;;;;;;2.80;2.28;;;;;;;;;;4935303;29;20052;-78
2021/11/16 03:23:43;;;;;;;3.13;2.72;;;;;;;;;;4935745;29;20512;-78
2021/11/16 03:26:47;;;;;;;5.18;3.17;;;;;;;;;;4935392;29;20040;-78
2021/11/16 03:29:55;;;;;;;5.82;2.90;;;;;;;;;;4935169;29;20055;-77
2021/11/16 03:32:59;;;;;;;6.35;3.30;;;;;;;;;;4935271;29;20488;-77
2021/11/16 03:36:04;;;;;;;5.60;3.33;;;;;;;;;;4934618;29;20035;-77
2021/11/16 03:39:11;;;;;;;5.50;3.38;;;;;;;;;;4935435;29;20377;-77
2021/11/16 03:42:15;;;;;;;5.25;3.85;;;;;;;;;;4934863;29;20393;-77
2021/11/16 03:45:21;;;;;;;6.82;3.95;;;;;;;;;;4934211;29;20040;-77
2021/11/16 03:48:26;;;;;;;7.25;4.40;;;;;;;;;;4935057;29;20048;-77
2021/11/16 03:51:31;;;;;;;10.68;4.82;;;;;;;;;;4935017;29;20193;-77
2021/11/16 03:54:35;;;;;;;6.60;4.50;;;;;;;;;;4934966;29;20050;-77
2021/11/16 03:57:40;;;;;;;7.40;4.95;;;;;;;;;;4934817;29;20508;-77
2021/11/16 04:00:46;;;;;;;8.75;4.60;;;;;;;;;;4934855;29;20048;-78
2021/11/16 04:03:50;;;;;;;7.35;4.55;;;;;;;;;;4934857;29;20039;-77
2021/11/16 04:06:55;;;;;;;6.20;4.72;;;;;;;;;;4934671;29;20476;-77
2021/11/16 04:09:59;;;;;;;7.05;4.65;;;;;;;;;;4934882;29;20401;-77
2021/11/16 04:13:04;;;;;;;7.00;4.93;;;;;;;;;;4934014;29;20043;-78
2021/11/16 04:16:08;;;;;;;7.05;4.75;;;;;;;;;;4934407;29;20040;-77
2021/11/16 04:19:13;;;;;;;8.27;4.93;;;;;;;;;;4934703;29;20047;-77
2021/11/16 04:22:17;;;;;;;9.98;4.78;;;;;;;;;;4934360;29;20047;-78
2021/11/16 04:25:21;;;;;;;8.63;5.95;;;;;;;;;;4934561;29;20039;-78
2021/11/16 04:28:26;;;;;;;9.82;6.28;;;;;;;;;;4933167;29;20048;-77
2021/11/16 04:31:30;;;;;;;8.80;6.78;;;;;;;;;;4934506;29;20043;-78
2021/11/16 04:34:35;;;;;;;13.00;6.90;;;;;;;;;;4934212;29;20043;-78
2021/11/16 04:37:40;;;;;;;9.23;5.65;;;;;;;;;;4934018;29;20055;-78
2021/11/16 04:40:49;;;;;;;7.35;5.40;;;;;;;;;;4934192;29;20039;-78
2021/11/16 04:43:55;;;;;;;7.40;4.68;;;;;;;;;;4934103;29;20043;-78
2021/11/16 04:47:01;;;;;;;7.70;4.95;;;;;;;;;;4934244;29;20044;-78
2021/11/16 04:50:15;;;;;;;5.63;4.65;;;;;;;;;;4934041;29;20508;-78
2021/11/16 05:03:15;;;;;;;5.75;4.28;;;;;;;;;;4934041;29;20047;-77
2021/11/16 05:06:21;;;;;;;5.90;4.28;;;;;;;;;;4933713;29;20400;-77
2021/11/16 05:09:25;;;;;;;6.93;4.50;;;;;;;;;;4933711;29;20032;-78
2021/11/16 05:12:31;;;;;;;5.80;3.90;;;;;;;;;;4933813;29;20048;-77
2021/11/16 05:15:37;;;;;;;7.90;5.03;;;;;;;;;;4932794;29;20405;-77
2021/11/16 05:18:42;;;;;;;5.05;3.63;;;;;;;;;;4935332;29;20184;-78
2021/11/16 05:21:46;;;;;;;6.55;4.57;;;;;;;;;;4937605;29;20516;-77
2021/11/16 05:24:51;;;;;;;6.15;4.38;;;;;;;;;;4937649;29;20036;-77
2021/11/16 05:27:55;;;;;;;6.00;4.70;;;;;;;;;;4936542;29;20188;-77
2021/11/16 05:31:00;;;;;;;8.50;5.00;;;;;;;;;;4938206;29;20048;-77
2021/11/16 05:34:04;;;;;;;6.72;5.15;;;;;;;;;;4937382;29;20409;-77
2021/11/16 05:37:09;;;;;;;8.43;5.18;;;;;;;;;;4937407;29;20540;-77
2021/11/16 05:40:13;;;;;;;10.02;4.72;;;;;;;;;;4937467;29;20040;-77
2021/11/16 05:43:18;;;;;;;6.82;5.00;;;;;;;;;;4937607;29;20043;-77
2021/11/16 05:46:23;;;;;;;7.20;5.95;;;;;;;;;;4937243;29;20040;-77
2021/11/16 05:49:37;;;;;;;7.30;5.93;;;;;;;;;;4936621;29;20040;-77
2021/11/16 05:52:41;;;;;;;9.95;7.25;;;;;;;;;;4937178;29;20055;-77
2021/11/16 05:55:47;;;;;;;10.13;7.70;;;;;;;;;;4936919;29;20040;-77
2021/11/16 05:58:55;;;;;;;11.55;8.48;;;;;;;;;;4937220;29;20040;-78
2021/11/16 06:02:01;;;;;;;11.77;8.23;;;;;;;;;;4936919;29;20052;-81
2021/11/16 06:05:06;;;;;;;9.82;8.23;;;;;;;;;;4937058;29;20047;-80
2021/11/16 06:08:24;;;;;;;10.55;8.65;;;;;;;;;;4937036;29;20036;-80
2021/11/16 06:11:30;;;;;;;12.38;9.48;;;;;;;;;;4937092;29;20055;-80
2021/11/16 06:14:34;;;;;;;11.05;9.63;;;;;;;;;;4936445;29;20036;-80
2021/11/16 06:17:42;;;;;;;13.57;10.30;;;;;;;;;;4936918;29;20040;-80
2021/11/16 06:20:47;;;;;;;15.82;10.52;;;;;;;;;;4936469;29;20047;-80
2021/11/16 06:23:53;;;;;;;16.58;10.88;;;;;;;;;;4936495;29;20054;-80
2021/11/16 06:26:57;;;;;;;15.43;12.52;;;;;;;;;;4936226;29;20050;-80
2021/11/16 06:30:02;;;;;;;16.63;12.35;;;;;;;;;;4935271;29;20054;-80
2021/11/16 06:33:07;;;;;;;16.55;12.75;;;;;;;;;;4936519;29;20046;-80
2021/11/16 06:36:11;;;;;;;15.75;11.85;;;;;;;;;;4936216;29;20051;-80
2021/11/16 06:39:16;;;;;;;15.77;11.48;;;;;;;;;;4936635;29;20054;-80
2021/11/16 06:42:21;;;;;;;13.13;10.50;;;;;;;;;;4936133;29;20063;-81
2021/11/16 06:45:25;;;;;;;14.60;9.35;;;;;;;;;;4935262;29;20399;-80
2021/11/16 06:48:29;;;;;;;13.48;9.57;;;;;;;;;;4935289;29;20054;-80
2021/11/16 06:51:38;;;;;;;9.88;7.85;;;;;;;;;;4935975;29;20051;-80
2021/11/16 06:54:42;;;;;;;9.63;6.03;;;;;;;;;;4936106;29;20052;-80
2021/11/16 06:57:47;;;;;;;7.22;5.72;;;;;;;;;;4936125;29;20039;-80
2021/11/16 07:00:52;;;;;;;6.63;5.07;;;;;;;;;;4923985;29;20047;-80
2021/11/16 07:04:03;;;;;;;6.25;5.00;;;;;;;;;;4935835;29;20048;-80
2021/11/16 07:07:08;;;;;;;6.40;5.03;;;;;;;;;;4935597;29;20573;-80
2021/11/16 07:10:17;;;;;;;8.68;6.63;;;;;;;;;;4935331;29;20385;-80
2021/11/16 07:13:21;;;;;;;9.63;6.05;;;;;;;;;;4935649;29;20043;-81
2021/11/16 07:16:27;;;;;;;10.13;7.90;;;;;;;;;;4935408;29;20472;-81
2021/11/16 07:19:32;;;;;;;8.43;6.38;;;;;;;;;;4935473;29;20055;-81
2021/11/16 07:22:37;;;;;;;7.45;6.05;;;;;;;;;;4935453;29;20051;-80
2021/11/16 07:25:41;;;;;;;8.48;6.55;;;;;;;;;;4935571;29;20472;-81
2021/11/16 07:28:49;;;;;;;7.60;6.07;;;;;;;;;;4934414;29;20397;-81
2021/11/16 07:31:56;;;;;;;7.03;5.07;;;;;;;;;;4935474;29;20035;-81
2021/11/16 07:35:04;;;;;;;6.88;4.80;;;;;;;;;;4934793;29;20385;-81
2021/11/16 07:38:11;;;;;;;7.10;5.03;;;;;;;;;;4935591;29;20039;-81
2021/11/16 07:41:23;;;;;;;7.45;5.10;;;;;;;;;;4934666;29;20051;-81
2021/11/16 07:44:27;;;;;;;;;;;;;;;;;;4935384;29;20051;-82
2021/11/16 07:47:36;;;;;;;6.93;3.92;;;;;;;;;;4935050;29;19917;-82
2021/11/16 07:50:45;;;;;;;5.15;4.00;;;;;;;;;;4934989;29;20586;-82
2021/11/16 07:53:51;;;;;;;5.97;4.30;;;;;;;;;;4934280;29;20044;-80
2021/11/16 07:57:04;;;;;;;8.23;4.13;;;;;;;;;;4934753;29;20036;-81
2021/11/16 08:00:22;;;;;;;7.40;3.95;;;;;;;;;;4934954;29;20048;-80
2021/11/16 08:03:27;;;;;;;6.93;4.35;;;;;;;;;;4934691;29;20043;-81
2021/11/16 08:06:40;;;;;;;6.95;4.10;;;;;;;;;;4934086;29;20372;-81
2021/11/16 08:09:52;;;;;;;5.65;4.75;;;;;;;;;;4934214;29;20039;-80
2021/11/16 08:13:04;;;;;;;4.45;4.05;;;;;;;;;;4934295;29;20036;-81
2021/11/16 08:16:12;;;;;;;6.07;4.72;;;;;;;;;;4934257;29;20047;-81
2021/11/16 08:19:24;;;;;;;5.05;4.10;;;;;;;;;;4933522;29;20036;-82
2021/11/16 08:22:29;;;;;;;5.10;3.75;;;;;;;;;;4922545;29;20060;-82
2021/11/16 08:25:33;;;;;;;5.03;4.57;;;;;;;;;;4934412;29;20032;-83
2021/11/16 08:28:41;;;;;;;4.22;3.78;;;;;;;;;;4934279;29;20051;-82
2021/11/16 08:31:54;;;;;;;5.30;4.80;;;;;;;;;;4933238;29;20032;-83
2021/11/16 08:34:58;;;;;;;5.80;3.65;;;;;;;;;;4934264;29;20043;-83
2021/11/16 08:38:05;;;;;;;4.88;3.50;;;;;;;;;;4934023;29;20040;-83
2021/11/16 08:41:22;;;;;;;4.60;3.67;;;;;;;;;;4934265;29;20043;-83
2021/11/16 08:44:32;;;;;;;3.03;2.65;;;;;;;;;;4934130;29;20397;-82
2021/11/16 08:47:41;;;;;;;3.88;2.67;;;;;;;;;;4934356;29;20044;-83
2021/11/16 08:51:06;;;;;;;5.18;2.72;;;;;;;;;;4934163;29;20365;-83
2021/11/16 08:54:11;;;;;;;3.63;1.95;;;;;;;;;;4933064;29;20369;-84
2021/11/16 08:57:19;;;;;;;2.50;1.77;;;;;;;;;;4933695;29;20036;-83
2021/11/16 09:00:44;;;;;;;5.13;2.10;;;;;;;;;;4934458;29;20039;-83
2021/11/16 09:03:48;;;;;;;3.88;2.30;;;;;;;;;;4934056;29;20055;-82
2021/11/16 09:06:53;;;;;;;3.78;2.03;;;;;;;;;;4933281;29;20047;-82
2021/11/16 09:10:04;;;;;;;6.53;2.03;;;;;;;;;;4933894;29;20036;-83
2021/11/16 09:13:09;;;;;;;;;;;;;;;;;;4934543;29;20529;-83
2021/11/16 09:16:15;;;;;;;3.15;2.17;;;;;;;;;;4934116;29;20075;-83
2021/11/16 09:19:24;;;;;;;6.03;2.95;;;;;;;;;;4933959;29;20044;-83
2021/11/16 09:22:29;;;;;;;3.45;1.98;;;;;;;;;;4934250;29;20044;-83
2021/11/16 09:25:38;;;;;;;2.70;1.80;;;;;;;;;;4934216;29;20388;-84
2021/11/16 09:28:47;;;;;;;3.38;1.77;;;;;;;;;;4933674;29;20052;-83
2021/11/16 09:32:02;;;;;;;3.47;2.30;;;;;;;;;;4933813;29;20032;-83
2021/11/16 09:35:07;;;;;;;3.80;2.20;;;;;;;;;;4935579;29;20047;-82
2021/11/16 09:38:11;;;;;;;3.45;2.20;;;;;;;;;;4935067;29;20040;-83
2021/11/16 09:41:20;;;;;;;3.05;2.08;;;;;;;;;;4934741;29;20047;-83
2021/11/16 09:44:30;;;;;;;6.22;2.25;;;;;;;;;;4933365;29;20150;-83
2021/11/16 09:47:35;;;;;;;4.60;2.45;;;;;;;;;;4934589;29;20040;-82
2021/11/16 09:50:40;;;;;;;3.75;2.50;;;;;;;;;;4935272;29;20035;-83
2021/11/16 09:53:44;;;;;;;4.53;2.20;;;;;;;;;;4933994;29;20036;-83
2021/11/16 09:57:02;;;;;;;3.58;2.40;;;;;;;;;;4934568;29;20380;-83
2021/11/16 10:00:10;;;;;;;4.85;2.97;;;;;;;;;;4934457;29;20047;-81
2021/11/16 10:03:15;;;;;;;5.20;2.42;;;;;;;;;;4933307;29;20051;-84
2021/11/16 10:06:20;;;;;;;4.38;2.50;;;;;;;;;;4937349;29;20043;-81
2021/11/16 10:09:24;;;;;;;2.67;2.15;;;;;;;;;;4937196;29;20048;-81
2021/11/16 10:12:52;;;;;;;3.60;2.03;;;;;;;;;;4937602;29;20036;-80
2021/11/16 10:15:57;;;;;;;4.45;2.40;;;;;;;;;;4937367;29;20496;-82
2021/11/16 10:19:02;;;;;;;6.40;2.35;;;;;;;;;;4936890;29;20044;-82
2021/11/16 10:22:11;;;;;;;4.90;2.70;;;;;;;;;;4937679;29;20456;-81
2021/11/16 10:25:17;;;;;;;3.15;2.30;;;;;;;;;;4936524;29;20040;-82
2021/11/16 10:28:23;;;;;;;5.22;2.80;;;;;;;;;;4936546;29;20040;-83
2021/11/16 10:31:32;;;;;;;3.15;1.75;;;;;;;;;;4936546;29;20040;-82
2021/11/16 10:34:38;;;;;;;4.03;2.08;;;;;;;;;;4936251;29;20031;-82
2021/11/16 10:37:56;;;;;;;3.03;1.60;;;;;;;;;;4936172;29;20044;-82
2021/11/16 10:41:02;;;;;;;3.88;1.88;;;;;;;;;;4936661;29;20032;-82
2021/11/16 10:44:08;;;;;;;2.88;1.73;;;;;;;;;;4936645;29;20040;-82
2021/11/16 10:47:12;;;;;;;2.33;1.58;;;;;;;;;;4936471;29;20039;-83
2021/11/16 10:50:19;;;;;;;3.92;1.60;;;;;;;;;;4936435;29;20039;-83
2021/11/16 10:53:26;;;;;;;2.72;1.67;;;;;;;;;;4936417;29;20039;-82
2021/11/16 10:56:37;;;;;;;3.15;1.60;;;;;;;;;;4936406;29;20036;-83
2021/11/16 10:59:41;;;;;;;2.25;1.48;;;;;;;;;;4935763;29;20036;-82
2021/11/16 11:02:45;;;;;;;2.80;1.25;;;;;;;;;;4935704;29;20056;-83
2021/11/16 11:05:58;;;;;;;3.25;1.50;;;;;;;;;;4935754;29;20475;-83
2021/11/16 11:09:04;;;;;;;2.08;1.20;;;;;;;;;;4935672;29;20044;-84
2021/11/16 11:12:23;;;;;;;5.30;1.60;;;;;;;;;;4936130;29;20335;-83
2021/11/16 11:15:34;;;;;;;3.45;1.20;;;;;;;;;;4934805;29;20036;-83
2021/11/16 11:18:39;;;;;;;6.17;2.00;;;;;;;;;;4935885;29;20480;-83
2021/11/16 11:21:48;;;;;;;2.58;1.55;;;;;;;;;;4935487;29;20039;-82
2021/11/16 11:28:41;;;;;;;8.40;2.85;;;;;;;;;;4934986;29;20039;-83
2021/11/16 11:31:46;;;;;;;7.28;2.72;;;;;;;;;;4935903;29;20039;-82
2021/11/16 11:34:58;;;;;;;9.10;3.00;;;;;;;;;;4935686;29;20377;-83
2021/11/16 11:38:13;;;;;;;5.10;2.60;;;;;;;;;;4935581;29;20044;-83
2021/11/16 11:41:17;;;;;;;8.48;2.97;;;;;;;;;;4935236;29;20036;-83
2021/11/16 11:44:21;;;;;;;7.57;3.25;;;;;;;;;;4935350;29;20055;-83
2021/11/16 11:47:31;;;;;;;9.30;3.40;;;;;;;;;;4934183;29;20040;-80
2021/11/16 11:50:38;;;;;;;9.98;3.33;;;;;;;;;;4934948;29;20487;-81
2021/11/16 11:53:43;;;;;;;9.68;4.20;;;;;;;;;;4935003;29;20048;-81
2021/11/16 11:56:48;;;;;;;6.43;3.70;;;;;;;;;;4935423;29;20472;-82
2021/11/16 11:59:53;;;;;;;8.27;2.53;;;;;;;;;;4934992;29;20489;-82
2021/11/16 12:02:58;;;;;;;5.50;2.20;;;;;;;;;;4934708;29;20047;-81
2021/11/16 12:06:04;;;;;;;7.25;1.95;;;;;;;;;;4935454;29;20039;-82
2021/11/16 12:09:08;;;;;;;7.88;2.65;;;;;;;;;;4935114;29;20043;-83
2021/11/16 12:12:14;;;;;;;6.90;3.10;;;;;;;;;;4935159;29;20031;-84
2021/11/16 12:15:42;;;;;;;5.40;4.15;;;;;;;;;;4934613;29;20048;-81
2021/11/16 12:18:47;;;;;;;8.82;4.35;;;;;;;;;;4926790;29;20039;-80
2021/11/16 12:21:52;;;;;;;8.85;4.40;;;;;;;;;;4933768;29;20044;-81
2021/11/16 12:25:00;;;;;;;7.47;5.65;;;;;;;;;;4934672;29;20035;-81
2021/11/16 12:28:24;;;;;;;9.60;5.53;;;;;;;;;;4933528;29;20480;-84
2021/11/16 12:31:30;;;;;;;9.52;4.45;;;;;;;;;;4934668;29;20484;-83
2021/11/16 12:34:43;;;;;;;12.43;6.30;;;;;;;;;;4934360;29;20484;-83
2021/11/16 12:37:53;;;;;;;11.38;6.25;;;;;;;;;;4934552;29;20039;-84
2021/11/16 12:40:57;;;;;;;6.32;3.42;;;;;;;;;;4934555;29;20039;-83
2021/11/16 12:44:07;;;;;;;6.57;3.25;;;;;;;;;;4934031;29;20048;-82
2021/11/16 12:47:14;;;;;;;8.10;4.00;;;;;;;;;;4934095;29;20047;-82
2021/11/16 12:50:19;;;;;;;6.32;3.25;;;;;;;;;;4933334;29;20028;-83
2021/11/16 12:53:43;;;;;;;7.95;3.28;;;;;;;;;;4932999;29;20389;-83
2021/11/16 12:56:50;;;;;;;3.65;2.38;;;;;;;;;;4934290;29;20039;-83
2021/11/16 12:59:55;;;;;;;4.68;2.35;;;;;;;;;;4934112;29;20047;-83
2021/11/16 13:02:59;;;;;;;5.90;3.28;;;;;;;;;;4933918;29;20048;-81
2021/11/16 13:06:13;;;;;;;6.10;3.20;;;;;;;;;;4933988;29;20039;-81
2021/11/16 13:09:38;;;;;;;8.20;3.20;;;;;;;;;;4934283;29;20044;-81
2021/11/16 13:12:48;;;;;;;6.10;2.70;;;;;;;;;;4932869;29;20043;-81
2021/11/16 13:15:55;;;;;;;6.22;2.75;;;;;;;;;;4933962;29;20052;-81
2021/11/16 13:19:00;;;;;;;8.82;2.90;;;;;;;;;;4933550;29;20052;-81
2021/11/16 13:22:04;;;;;;;5.03;2.72;;;;;;;;;;4933729;29;20044;-81
2021/11/16 13:25:29;;;;;;;3.83;2.50;;;;;;;;;;4933536;29;20036;-82
2021/11/16 13:31:44;;;;;;;6.50;3.35;;;;;;;;;;4934010;29;20056;-81
2021/11/16 13:34:49;;;;;;;7.28;2.75;;;;;;;;;;4933948;29;20040;-80
2021/11/16 13:37:54;;;;;;;7.05;3.03;;;;;;;;;;4933639;29;20377;-81
2021/11/16 13:41:00;;;;;;;6.47;3.40;;;;;;;;;;4938317;29;20043;-82
2021/11/16 13:44:12;;;;;;;9.27;3.60;;;;;;;;;;4939058;29;20504;-81
2021/11/16 13:47:35;;;;;;;4.78;3.08;;;;;;;;;;4939548;29;20208;-82
2021/11/16 13:50:42;;;;;;;6.13;3.67;;;;;;;;;;4937136;29;20043;-81
2021/11/16 13:53:55;;;;;;;6.15;3.33;;;;;;;;;;4937223;29;20040;-81
2021/11/16 13:57:01;;;;;;;8.88;3.63;;;;;;;;;;4937040;29;20051;-81
2021/11/16 14:00:05;;;;;;;8.27;3.88;;;;;;;;;;4936985;29;20376;-81
2021/11/16 14:03:24;;;;;;;6.85;3.38;;;;;;;;;;4936667;29;20215;-81
2021/11/16 14:06:28;;;;;;;;;;;;;;;;;;4937333;29;20028;-81
2021/11/16 14:09:31;;;;;;;6.25;3.15;;;;;;;;;;4937013;29;19918;-81
2021/11/16 14:12:36;;;;;;;5.97;4.03;;;;;;;;;;4937197;29;20040;-82
2021/11/16 14:15:41;;;;;;;9.85;4.63;;;;;;;;;;4936631;29;20044;-81
2021/11/16 14:18:45;;;;;;;35.63;16.48;;;;;;;;;;4936679;29;20048;-82
2021/11/16 14:21:51;;;;;;;23.17;12.90;;;;;;;;;;4936779;29;20043;-82
2021/11/16 14:24:56;;;;;;;14.95;5.97;;;;;;;;;;4936726;29;20150;-82
2021/11/16 14:28:03;;;;;;;10.80;6.18;;;;;;;;;;4936312;29;20044;-82
2021/11/16 14:31:15;;;;;;;7.45;4.10;;;;;;;;;;4936640;29;20390;-81
2021/11/16 14:34:21;;;;;;;7.38;4.25;;;;;;;;;;4936618;29;20047;-81
2021/11/16 14:37:25;;;;;;;7.18;3.75;;;;;;;;;;4937151;29;20036;-82
2021/11/16 14:40:29;;;;;;;6.90;3.42;;;;;;;;;;4937492;29;20044;-82
2021/11/16 14:43:34;;;;;;;7.20;3.45;;;;;;;;;;4936391;29;20496;-82
2021/11/16 14:46:38;;;;;;;6.88;3.55;;;;;;;;;;4936477;29;20032;-81
2021/11/16 14:52:55;;;;;;;8.60;3.50;;;;;;;;;;4936322;29;20035;-82
2021/11/16 14:55:59;;;;;;;8.07;3.72;;;;;;;;;;4935926;29;20500;-82
2021/11/16 14:59:04;;;;;;;7.38;3.30;;;;;;;;;;4935090;29;20047;-82
2021/11/16 15:02:08;;;;;;;10.15;3.60;;;;;;;;;;4935853;29;20051;-81
2021/11/16 15:05:13;;;;;;;5.45;3.50;;;;;;;;;;4924218;29;20048;-81
2021/11/16 15:08:27;;;;;;;8.10;3.85;;;;;;;;;;4936071;29;20035;-82
2021/11/16 15:11:31;;;;;;;7.25;4.18;;;;;;;;;;4935925;29;20496;-83
2021/11/16 15:14:43;;;;;;;5.43;3.50;;;;;;;;;;4935143;29;20043;-82
2021/11/16 15:17:49;;;;;;;6.10;3.72;;;;;;;;;;4935553;29;20036;-83
2021/11/16 15:25:16;;;;;;;6.82;4.40;;;;;;;;;;4934899;29;20044;-82
2021/11/16 15:27:58;;;;;;;8.93;3.95;;;;;;;;;;4939806;29;20048;-82
2021/11/16 15:31:13;;;;;;;11.98;4.50;;;;;;;;;;4936074;29;20368;-82
2021/11/16 15:34:18;;;;;;;6.68;4.78;;;;;;;;;;4934982;29;20054;-82
2021/11/16 15:37:32;;;;;;;11.05;5.03;;;;;;;;;;4935613;29;20043;-82
2021/11/16 15:40:37;;;;;;;8.73;4.70;;;;;;;;;;4935626;29;20513;-82
2021/11/16 15:57:27;;;;;;;16.23;6.53;;;;;;;;;;4934890;29;20056;-83
2021/11/16 16:00:31;;;;;;;13.02;6.95;;;;;;;;;;4935329;29;20050;-82
2021/11/16 16:03:37;;;;;;;11.85;6.95;;;;;;;;;;4934745;29;20063;-83
2021/11/16 16:06:42;;;;;;;20.58;8.98;;;;;;;;;;4935909;29;20044;-83
2021/11/16 16:10:00;;;;;;;19.02;9.27;;;;;;;;;;4933982;29;20043;-82
2021/11/16 16:13:05;;;;;;;16.02;8.77;;;;;;;;;;4934534;29;20047;-82
2021/11/16 16:16:15;;;;;;;15.13;8.93;;;;;;;;;;4935223;29;20080;-81
2021/11/16 16:19:20;;;;;;;19.58;9.57;;;;;;;;;;4935061;29;20376;-82
2021/11/16 16:22:26;;;;;;;27.73;12.07;;;;;;;;;;4934441;29;20404;-83
2021/11/16 16:25:31;;;;;;;28.25;11.85;;;;;;;;;;4934612;29;20052;-82
2021/11/16 16:28:41;;;;;;;21.35;11.00;;;;;;;;;;4934898;29;20055;-82
2021/11/16 16:31:46;;;;;;;;;;;;;;;;;;4934427;29;20048;-82
2021/11/16 16:34:51;;;;;;;25.77;11.73;;;;;;;;;;4934728;29;19922;-82
2021/11/16 16:37:55;;;;;;;21.05;10.55;;;;;;;;;;4934922;29;20066;-82
2021/11/16 16:41:06;;;;;;;18.42;10.43;;;;;;;;;;4933221;29;20050;-82
2021/11/16 16:44:11;;;;;;;27.45;11.82;;;;;;;;;;4934643;29;20527;-82
2021/11/16 16:47:18;;;;;;;32.47;12.82;;;;;;;;;;4934029;29;20043;-83
2021/11/16 16:50:23;;;;;;;24.80;12.77;;;;;;;;;;4933919;29;20050;-84
2021/11/16 16:53:27;;;;;;;27.98;12.95;;;;;;;;;;4934258;29;20043;-82
2021/11/16 16:56:33;;;;;;;25.42;12.65;;;;;;;;;;4934612;29;20066;-82
2021/11/16 16:59:37;;;;;;;20.52;13.27;;;;;;;;;;4934614;29;20055;-82
2021/11/16 17:02:43;;;;;;;23.00;12.98;;;;;;;;;;4933306;29;20218;-82
2021/11/16 17:05:50;;;;;;;29.27;15.07;;;;;;;;;;4934407;29;20058;-82
2021/11/16 17:08:54;;;;;;;37.67;16.67;;;;;;;;;;4933276;29;20142;-82
2021/11/16 17:12:05;;;;;;;33.80;20.35;;;;;;;;;;4934341;29;20384;-81
2021/11/16 17:15:11;;;;;;;39.28;21.65;;;;;;;;;;4939001;29;20055;-83
2021/11/16 17:18:16;;;;;;;31.45;22.08;;;;;;;;;;4938813;29;20059;-82
2021/11/16 17:21:20;;;;;;;35.47;21.85;;;;;;;;;;4938474;29;20055;-82
2021/11/16 17:24:25;;;;;;;40.00;19.73;;;;;;;;;;4938037;29;20051;-83
2021/11/16 17:27:30;;;;;;;38.72;20.88;;;;;;;;;;4938191;29;20059;-81
2021/11/16 17:30:35;;;;;;;33.80;16.13;;;;;;;;;;4937482;29;20062;-82
2021/11/16 17:33:39;;;;;;;26.60;14.23;;;;;;;;;;4937944;29;20106;-82
2021/11/16 17:36:43;;;;;;;31.23;13.40;;;;;;;;;;4938183;29;20157;-82
2021/11/16 17:39:48;;;;;;;22.33;12.77;;;;;;;;;;4937743;29;20051;-81
2021/11/16 17:42:52;;;;;;;23.90;12.77;;;;;;;;;;4937844;29;20059;-81
2021/11/16 17:45:57;;;;;;;27.02;13.73;;;;;;;;;;4937708;29;20407;-80
2021/11/16 17:49:03;;;;;;;30.52;14.40;;;;;;;;;;4945233;29;20224;-82
2021/11/16 17:52:09;;;;;;;27.38;13.80;;;;;;;;;;4939026;29;20046;-80
2021/11/16 17:55:13;;;;;;;24.52;14.00;;;;;;;;;;4943744;29;20050;-81
2021/11/16 17:58:18;;;;;;;28.10;12.95;;;;;;;;;;4937401;29;20097;-82
2021/11/16 18:01:22;;;;;;;25.10;11.10;;;;;;;;;;4937125;29;20502;-83
2021/11/16 18:04:36;;;;;;;20.15;11.25;;;;;;;;;;4937022;29;20400;-84
2021/11/16 18:08:00;;;;;;;26.08;11.57;;;;;;;;;;4937378;29;20188;-84
2021/11/16 18:11:04;;;;;;;17.30;8.98;;;;;;;;;;4936564;29;20070;-84
2021/11/16 18:14:09;;;;;;;28.45;10.52;;;;;;;;;;4937398;29;20047;-85
2021/11/16 18:17:14;;;;;;;18.67;7.93;;;;;;;;;;4937877;29;20054;-85
2021/11/16 18:20:20;;;;;;;22.23;7.05;;;;;;;;;;4936733;29;20049;-85
2021/11/16 18:23:24;;;;;;;20.33;8.38;;;;;;;;;;4935893;29;20376;-80
2021/11/16 18:26:30;;;;;;;22.50;8.98;;;;;;;;;;4936553;29;20516;-81
2021/11/16 18:29:35;;;;;;;25.75;10.55;;;;;;;;;;4935848;29;20056;-80
2021/11/16 18:32:40;;;;;;;23.27;11.98;;;;;;;;;;4924732;29;20502;-80
2021/11/16 18:35:44;;;;;;;24.23;13.55;;;;;;;;;;4936425;29;20059;-82
2021/11/16 18:39:35;;;;;;;30.73;15.30;;;;;;;;;;4935314;29;20078;-82
2021/11/16 18:42:20;;;;;;;31.52;16.20;;;;;;;;;;4938436;29;20043;-78
2021/11/16 18:45:31;;;;;;;25.60;14.55;;;;;;;;;;4934842;29;20055;-81
2021/11/16 18:48:47;;;;;;;30.67;15.07;;;;;;;;;;4935546;29;20149;-77
2021/11/16 18:51:52;;;;;;;21.45;13.55;;;;;;;;;;4936352;29;20539;-77
2021/11/16 18:54:57;;;;;;;32.78;14.88;;;;;;;;;;4935916;29;20055;-76
2021/11/16 18:58:02;;;;;;;27.70;13.90;;;;;;;;;;4935869;29;20408;-76
2021/11/16 19:01:06;;;;;;;23.50;13.75;;;;;;;;;;4935690;29;20042;-77
2021/11/16 19:04:10;;;;;;;26.20;14.75;;;;;;;;;;4935415;29;20511;-77
2021/11/16 19:07:14;;;;;;;37.10;21.92;;;;;;;;;;4936080;29;20392;-75
2021/11/16 19:10:19;;;;;;;34.72;20.92;;;;;;;;;;4935378;29;20067;-76
2021/11/16 19:13:23;;;;;;;31.55;18.50;;;;;;;;;;4935528;29;20058;-76